La Sarre, Canada
Current Conditions -  °F | °C
As of 8:00 PM on Monday 20 Oct 2014 (Local Time) from CYUY Reporting Station
Broken Clouds Broken Clouds  
Wind Chill:   Ceiling: 14000
Heat Index:   Visibility: 15mi
Dew Point:   Wind: 3mph
Humidity: 87%   Direction: 50°NE
Pressure: 29.92"   Gusts: NA
Location:  48.8°N, 79.2°W
Report Text: CYUY 210000Z 05003KT 15SM BKN140 03/01 A2992 RMK AS5 SLP146
Loading
Personal Weather Stations






























Interactive Weather Map
Tropical Storm Tracking
New forecast layout! Learn more

10-Day Weather Forecast

Advertisements
Track Severe Weather on mobile